Beverly Hills, CA

9:16 AM PDT on October 24, 2014 (GMT -0700)
MacDumes - Park La Brea | Change Station
CLOSE
Current Station
Personal Weather Station
Location: Los Angeles, CA
Elevation: 217 ft
Nearby Weather Stations

Elev 217 ft 34.07 °N, 118.35 °W | Updated 6 seconds ago

Clear
Clear
65.5 °F
Feels Like 65.5 °F
N
0.0
Wind Variable Wind from NE
Gusts 0.0 mph

Today
High -- | Low -- °F
--% Chance of Precip.
Yesterday
High -- | Low -- °F
Precip. -- in
7:06 AM 6:08 PM
New Moon, 1% visible
Pressure 29.99 in
Visibility 10.0 miles
Clouds Clear
Dew Point 59 °F
Humidity 80%
Rainfall 0.00 in
Snow Depth Not available.
UV 1 out of 12
Pollen 4.10 out of 12
Air Quality Not available.
Flu Activity Not available.
METAR KSMO 241551Z 07003KT 10SM CLR 21/09 A3000 RMK AO2 SLP155 T02060089

More Conditions Fewer Conditions

Pressure 29.99 in
Visibility 10.0 miles
Clouds Clear
Dew Point 59 °F
Humidity 80%
Rainfall 0.00 in
Snow Depth Not available.
UV 1 out of 12
Pollen 4.10 out of 12
Air Quality Not available.
Flu Activity Not available.
METAR KSMO 241551Z 07003KT 10SM CLR 21/09 A3000 RMK AO2 SLP155 T02060089

More Conditions Fewer Conditions

10-Day Weather Forecast

Almanac

Astronomy

Oct. 24, 2014 Rise Set
Actual Time 7:06 AM PDT 6:08 PM PDT
Civil Twilight 6:40 AM PDT 6:34 PM PDT
Nautical Twilight 6:11 AM PDT 7:03 PM PDT
Astronomical Twilight 5:42 AM PDT 7:32 PM PDT
Moon 7:48 AM PDT 6:54 PM PDT
Length of Visible Light 11h 53m
Length of Day
11h 02m
Tomorrow will be 1m 57s shorter.
New Moon, 1% of the Moon is Illuminated
Today
New Moon
Oct 30
First Quarter
Nov 6
Full
Nov 14
Last Quarter
Nov 22
New

Today's Extremes

State Highs State Lows

Community

WunderPhotos

Upload Photos

1,764,600 photos uploaded!

WunderBlogs® & News

By Dr. Jeff Masters
Director of Meteorology, Weather Underground
By Kari Strenfel
Meteorologist, Weather Underground
By Christopher C. Burt
Weather Historian, Weather Underground
October 24, 2014
October 24, 2014
October 24, 2014

Nearby

Snow Depth

Station Depth Elevation
Virginia Lakes Ridge 0 in 9200 ft
Leavitt Lake 1 in 9400 ft
Sonora Pass 0 in 8800 ft
Leavitt Meadows 1 in 7200 ft
Summit Meadow 1 in 9122 ft

Earthquake Activity

City Distance Mag. Time & Date
Brea, California 29 miles 2.9 3:35 PM PDT
2014-10-23
Brea, California 30 miles 2.8 3:34 PM PDT
2014-10-23
Corona, California 44 miles 2.5 1:09 PM PDT
2014-10-23
Solvang, California 104 miles 2.6 5:35 PM PDT
2014-10-22
Minimum magnitude displayed is 2.5.

Coastal Water Temperatures

Place Temperature
Santa Monica Pier 68.0 °F
Los Angeles, CA 69.1 °F
La Jolla, CA 70.0 °F

Nearby Weather Stations